createdAt,value
2018-08-25T00:01:26.994Z,1.77
2018-08-25T00:03:55.685Z,1.53
2018-08-25T00:06:24.501Z,1.57
2018-08-25T00:08:53.068Z,1.33
2018-08-25T00:11:22.594Z,1.60
2018-08-25T00:13:51.227Z,1.00
2018-08-25T00:16:19.806Z,1.20
2018-08-25T00:18:48.375Z,1.23
2018-08-25T00:21:16.961Z,1.20
2018-08-25T00:23:45.520Z,1.10
2018-08-25T00:26:14.280Z,1.00
2018-08-25T00:28:42.934Z,1.60
2018-08-25T00:31:17.858Z,1.17
2018-08-25T00:33:46.456Z,1.67
2018-08-25T00:36:15.743Z,1.17
2018-08-25T00:38:44.356Z,1.37
2018-08-25T00:41:13.233Z,0.80
2018-08-25T00:43:41.843Z,1.20
2018-08-25T00:46:10.464Z,1.33
2018-08-25T00:48:39.178Z,1.63
2018-08-25T00:51:08.010Z,1.27
2018-08-25T00:53:37.094Z,1.10
2018-08-25T00:56:06.248Z,1.17
2018-08-25T00:58:35.072Z,1.00
2018-08-25T01:01:04.419Z,0.80
2018-08-25T01:03:33.656Z,1.43
2018-08-25T01:06:02.401Z,0.90
2018-08-25T01:08:31.170Z,1.23
2018-08-25T01:10:59.788Z,1.00
2018-08-25T01:13:28.416Z,0.80
2018-08-25T01:15:57.042Z,1.57
2018-08-25T01:18:25.666Z,1.10
2018-08-25T01:20:54.336Z,1.60
2018-08-25T01:23:22.971Z,1.10
2018-08-25T01:25:51.674Z,1.10
2018-08-25T01:28:20.320Z,0.90
2018-08-25T01:30:48.878Z,1.37
2018-08-25T01:33:17.507Z,1.00
2018-08-25T01:35:46.158Z,1.43
2018-08-25T01:38:14.774Z,1.37
2018-08-25T01:40:44.038Z,1.23
2018-08-25T01:43:13.068Z,1.93
2018-08-25T01:45:41.687Z,1.30
2018-08-25T01:48:11.164Z,1.30
2018-08-25T01:50:39.744Z,1.50
2018-08-25T01:53:08.883Z,1.40
2018-08-25T01:55:38.240Z,1.30
2018-08-25T01:58:07.587Z,1.00
2018-08-25T02:00:36.771Z,1.30
2018-08-25T02:03:06.423Z,1.43
2018-08-25T02:05:35.827Z,2.10
2018-08-25T02:08:05.502Z,1.50
2018-08-25T02:10:34.122Z,1.70
2018-08-25T02:13:02.753Z,1.20
2018-08-25T02:15:31.415Z,1.40
2018-08-25T02:18:00.120Z,1.10
2018-08-25T02:20:28.862Z,1.33
2018-08-25T02:22:57.516Z,1.40
2018-08-25T02:25:26.580Z,1.40
2018-08-25T02:27:55.220Z,1.40
2018-08-25T02:30:23.980Z,1.37
2018-08-25T02:32:53.123Z,1.20
2018-08-25T02:35:21.792Z,1.00
2018-08-25T02:37:50.452Z,1.17
2018-08-25T02:40:19.266Z,1.40
2018-08-25T02:42:47.884Z,1.50
2018-08-25T02:45:16.567Z,2.27
2018-08-25T02:47:46.048Z,1.67
2018-08-25T02:50:15.436Z,1.23
2018-08-25T02:52:44.070Z,0.83
2018-08-25T02:55:12.713Z,1.30
2018-08-25T02:57:41.331Z,1.07
2018-08-25T03:00:10.064Z,1.10
2018-08-25T03:02:38.705Z,1.33
2018-08-25T03:05:08.010Z,1.10
2018-08-25T03:07:36.788Z,1.80
2018-08-25T03:10:05.896Z,1.80
2018-08-25T03:12:34.560Z,1.20
2018-08-25T03:15:04.436Z,1.20
2018-08-25T03:17:33.124Z,0.90
2018-08-25T03:20:01.731Z,1.00
2018-08-25T03:22:31.483Z,1.70
2018-08-25T03:25:00.093Z,1.20
2018-08-25T03:27:29.223Z,1.10
2018-08-25T03:29:58.158Z,1.30
2018-08-25T03:32:26.784Z,1.60
2018-08-25T03:34:55.953Z,1.47
2018-08-25T03:37:24.539Z,1.20
2018-08-25T03:39:53.207Z,1.47
2018-08-25T03:42:21.933Z,1.50
2018-08-25T03:44:50.531Z,1.30
2018-08-25T03:47:19.161Z,1.67
2018-08-25T03:49:47.845Z,1.70
2018-08-25T03:52:16.481Z,1.20
2018-08-25T03:54:45.877Z,1.47
2018-08-25T03:57:14.500Z,1.70
2018-08-25T03:59:43.085Z,1.80
2018-08-25T04:02:11.696Z,1.60
2018-08-25T04:04:40.288Z,1.43
2018-08-25T04:07:09.166Z,1.63
2018-08-25T04:09:37.708Z,2.03
2018-08-25T04:12:06.450Z,2.80
2018-08-25T04:14:35.117Z,1.77
2018-08-25T04:17:03.715Z,3.10
2018-08-25T04:19:32.281Z,2.20
2018-08-25T04:22:00.929Z,2.00
2018-08-25T04:24:30.256Z,1.60
2018-08-25T04:26:58.871Z,1.90
2018-08-25T04:29:27.520Z,1.57
2018-08-25T04:31:56.228Z,3.97
2018-08-25T04:34:25.613Z,1.80
2018-08-25T04:36:54.253Z,1.73
2018-08-25T04:39:22.825Z,2.00
2018-08-25T04:41:51.386Z,1.67
2018-08-25T04:44:20.005Z,1.93
2018-08-25T04:46:48.581Z,1.87
2018-08-25T04:49:17.245Z,1.63
2018-08-25T04:51:46.629Z,1.40
2018-08-25T04:54:15.397Z,1.50
2018-08-25T04:56:43.978Z,1.30
2018-08-25T04:59:12.588Z,1.57
2018-08-25T05:01:41.168Z,1.30
2018-08-25T05:04:09.745Z,1.40
2018-08-25T05:06:38.373Z,1.70
2018-08-25T05:09:08.971Z,1.80
2018-08-25T05:11:37.652Z,1.30
2018-08-25T05:14:06.279Z,1.97
2018-08-25T05:16:35.139Z,1.30
2018-08-25T05:19:04.664Z,1.60
2018-08-25T05:21:33.297Z,1.73
2018-08-25T05:24:01.870Z,1.60
2018-08-25T05:26:31.276Z,1.30
2018-08-25T05:29:00.545Z,1.10
2018-08-25T05:31:29.084Z,2.07
2018-08-25T05:33:57.702Z,1.67
2018-08-25T05:36:26.320Z,2.27
2018-08-25T05:38:54.872Z,1.60
2018-08-25T05:41:23.522Z,1.70
2018-08-25T05:43:52.150Z,1.40
2018-08-25T05:46:20.795Z,1.40
2018-08-25T05:48:50.315Z,1.60
2018-08-25T05:51:18.934Z,1.30
2018-08-25T05:53:47.596Z,1.23
2018-08-25T05:56:16.251Z,1.30
2018-08-25T05:58:44.817Z,1.30
2018-08-25T06:01:13.424Z,1.53
2018-08-25T06:03:42.015Z,1.60
2018-08-25T06:06:10.618Z,1.67
2018-08-25T06:08:39.241Z,1.33
2018-08-25T06:11:08.903Z,1.57
2018-08-25T06:13:37.523Z,1.47
2018-08-25T06:16:06.118Z,1.63
2018-08-25T06:18:35.457Z,1.70
2018-08-25T06:21:04.493Z,1.30
2018-08-25T06:23:33.341Z,1.40
2018-08-25T06:26:02.053Z,1.80
2018-08-25T06:28:30.713Z,1.73
2018-08-25T06:31:00.029Z,1.60
2018-08-25T06:33:28.646Z,1.67
2018-08-25T06:35:57.403Z,2.03
2018-08-25T06:38:25.988Z,1.73
2018-08-25T06:40:54.682Z,1.40
2018-08-25T06:43:23.349Z,2.08
2018-08-25T06:45:57.376Z,2.13
2018-08-25T06:48:26.078Z,2.23
2018-08-25T06:50:54.827Z,1.80
2018-08-25T06:53:23.621Z,2.50
2018-08-25T06:55:52.113Z,2.37
2018-08-25T06:58:21.491Z,2.10
2018-08-25T07:00:50.273Z,2.23
2018-08-25T07:03:18.982Z,2.23
2018-08-25T07:05:47.830Z,2.20
2018-08-25T07:08:16.541Z,2.47
2018-08-25T07:10:45.788Z,2.33
2018-08-25T07:13:14.661Z,2.67
2018-08-25T07:15:43.396Z,2.40
2018-08-25T07:18:12.616Z,2.23
2018-08-25T07:20:41.280Z,3.00
2018-08-25T07:23:09.911Z,2.03
2018-08-25T07:25:38.490Z,1.73
2018-08-25T07:28:07.060Z,2.17
2018-08-25T07:30:36.719Z,2.00
2018-08-25T07:33:05.592Z,2.50
2018-08-25T07:35:34.388Z,2.03
2018-08-25T07:38:03.006Z,2.07
2018-08-25T07:40:32.377Z,1.90
2018-08-25T07:43:01.152Z,2.47
2018-08-25T07:45:29.891Z,2.63
2018-08-25T07:47:58.649Z,4.07
2018-08-25T07:50:27.339Z,2.70
2018-08-25T07:52:56.101Z,3.37
2018-08-25T07:55:24.824Z,3.20
2018-08-25T07:57:53.523Z,3.60
2018-08-25T08:00:22.269Z,3.63
2018-08-25T08:02:50.887Z,4.37
2018-08-25T08:05:19.534Z,4.10
2018-08-25T08:07:48.180Z,4.60
2018-08-25T08:10:16.965Z,4.27
2018-08-25T08:12:45.632Z,3.97
2018-08-25T08:15:14.347Z,3.83
2018-08-25T08:17:42.973Z,3.40
2018-08-25T08:20:11.781Z,3.87
2018-08-25T08:22:40.705Z,3.90
2018-08-25T08:25:09.944Z,4.40
2018-08-25T08:27:38.624Z,3.47
2018-08-25T08:30:08.068Z,3.30
2018-08-25T08:32:36.665Z,3.70
2018-08-25T08:35:06.126Z,3.97
2018-08-25T08:37:34.730Z,3.40
2018-08-25T08:40:03.484Z,4.13
2018-08-25T08:42:32.887Z,3.53
2018-08-25T08:45:01.499Z,3.23
2018-08-25T08:47:30.108Z,3.00
2018-08-25T08:49:58.793Z,2.80
2018-08-25T08:52:28.235Z,2.70
2018-08-25T08:54:56.853Z,2.83
2018-08-25T08:57:25.551Z,2.80
2018-08-25T08:59:54.822Z,3.27
2018-08-25T09:02:23.994Z,2.90
2018-08-25T09:04:52.606Z,2.87
2018-08-25T09:07:22.282Z,2.80
2018-08-25T09:09:51.199Z,3.00
2018-08-25T09:12:19.848Z,3.20
2018-08-25T09:14:48.450Z,3.03
2018-08-25T09:17:18.720Z,3.30
2018-08-25T09:19:47.328Z,3.40
2018-08-25T09:22:17.052Z,3.03
2018-08-25T09:24:45.848Z,3.63
2018-08-25T09:27:14.637Z,2.50
2018-08-25T09:29:43.453Z,3.50
2018-08-25T09:32:12.116Z,3.27
2018-08-25T09:34:41.374Z,2.90
2018-08-25T09:37:11.384Z,3.00
2018-08-25T09:39:40.174Z,2.60
2018-08-25T09:42:09.597Z,3.00
2018-08-25T09:44:38.600Z,2.40
2018-08-25T09:47:07.320Z,2.50
2018-08-25T09:49:35.969Z,2.50
2018-08-25T09:52:05.932Z,3.00
2018-08-25T09:54:34.623Z,2.23
2018-08-25T09:57:03.204Z,1.93
2018-08-25T09:59:33.390Z,2.13
2018-08-25T10:02:02.776Z,2.60
2018-08-25T10:04:32.176Z,1.67
2018-08-25T10:07:00.780Z,2.20
2018-08-25T10:09:29.384Z,1.87
2018-08-25T10:11:59.811Z,1.53
2018-08-25T10:14:29.059Z,1.50
2018-08-25T10:16:58.252Z,1.73
2018-08-25T10:19:27.372Z,1.40
2018-08-25T10:21:56.636Z,2.03
2018-08-25T10:24:26.016Z,1.50
2018-08-25T10:26:54.694Z,1.70
2018-08-25T10:29:23.555Z,1.97
2018-08-25T10:31:52.216Z,2.00
2018-08-25T10:34:21.455Z,1.27
2018-08-25T10:36:50.344Z,1.80
2018-08-25T10:39:19.682Z,1.97
2018-08-25T10:41:48.435Z,2.00
2018-08-25T10:44:16.941Z,1.47
2018-08-25T10:46:45.585Z,1.37
2018-08-25T10:49:14.274Z,1.53
2018-08-25T10:51:43.150Z,1.20
2018-08-25T10:54:11.851Z,1.80
2018-08-25T10:56:41.178Z,1.80
2018-08-25T10:59:10.400Z,3.43
2018-08-25T11:01:39.009Z,2.23
2018-08-25T11:04:08.412Z,1.80
2018-08-25T11:06:37.056Z,2.00
2018-08-25T11:09:09.786Z,1.77
2018-08-25T11:11:38.379Z,1.50
2018-08-25T11:14:07.306Z,2.00
2018-08-25T11:16:36.163Z,1.10
2018-08-25T11:19:04.885Z,1.30
2018-08-25T11:21:33.587Z,1.40
2018-08-25T11:24:02.301Z,1.87
2018-08-25T11:26:31.129Z,1.43
2018-08-25T11:28:59.914Z,1.63
2018-08-25T11:31:28.678Z,1.70
2018-08-25T11:33:58.368Z,1.93
2018-08-25T11:36:28.053Z,1.40
2018-08-25T11:38:56.934Z,1.23
2018-08-25T11:41:26.395Z,1.67
2018-08-25T11:43:55.007Z,1.37
2018-08-25T11:46:23.628Z,1.60
2018-08-25T11:51:24.979Z,1.57
2018-08-25T11:53:54.264Z,1.30
2018-08-25T11:56:25.970Z,1.90
2018-08-25T11:58:54.542Z,1.63
2018-08-25T12:01:23.510Z,1.63
2018-08-25T12:03:53.070Z,1.37
2018-08-25T12:06:22.745Z,1.30
2018-08-25T12:08:51.508Z,1.30
2018-08-25T12:11:20.317Z,1.70
2018-08-25T12:13:48.864Z,1.10
2018-08-25T12:16:18.327Z,2.00
2018-08-25T12:18:47.457Z,1.30
2018-08-25T12:21:16.110Z,1.40
2018-08-25T12:23:44.805Z,1.63
2018-08-25T12:26:13.532Z,1.57
2018-08-25T12:28:42.525Z,1.80
2018-08-25T12:31:11.914Z,1.90
2018-08-25T12:33:40.555Z,1.57
2018-08-25T12:36:09.150Z,1.90
2018-08-25T12:38:37.919Z,1.30
2018-08-25T12:41:06.616Z,1.23
2018-08-25T12:43:35.394Z,1.60
2018-08-25T12:46:04.228Z,3.13
2018-08-25T12:48:32.886Z,1.13
2018-08-25T12:51:01.718Z,1.53
2018-08-25T12:53:31.932Z,2.10
2018-08-25T12:56:01.169Z,1.90
2018-08-25T12:58:30.323Z,1.33
2018-08-25T13:00:59.153Z,1.50
2018-08-25T13:03:28.724Z,1.03
2018-08-25T13:05:58.192Z,1.20
2018-08-25T13:08:26.904Z,1.30
2018-08-25T13:10:56.132Z,0.90
2018-08-25T13:13:24.850Z,1.70
2018-08-25T13:15:53.588Z,1.27
2018-08-25T13:18:22.353Z,1.13
2018-08-25T13:20:52.171Z,1.97
2018-08-25T13:23:21.070Z,1.50
2018-08-25T13:25:49.689Z,1.87
2018-08-25T13:28:18.391Z,1.47
2018-08-25T13:30:47.252Z,1.70
2018-08-25T13:33:16.114Z,1.77
2018-08-25T13:35:44.739Z,1.60
2018-08-25T13:38:13.530Z,1.37
2018-08-25T13:40:42.329Z,1.60
2018-08-25T13:43:12.753Z,1.60
2018-08-25T13:45:42.137Z,1.80
2018-08-25T13:48:10.878Z,1.10
2018-08-25T13:50:39.742Z,1.07
2018-08-25T13:53:08.890Z,1.20
2018-08-25T13:55:38.358Z,1.23
2018-08-25T13:58:07.205Z,1.60
2018-08-25T14:00:36.958Z,1.30
2018-08-25T14:03:05.692Z,1.17
2018-08-25T14:05:34.376Z,1.60
2018-08-25T14:08:03.145Z,1.30
2018-08-25T14:10:31.916Z,1.13
2018-08-25T14:13:01.681Z,1.30
2018-08-25T14:15:30.883Z,1.23
2018-08-25T14:17:59.660Z,1.40
2018-08-25T14:20:28.428Z,1.40
2018-08-25T14:22:58.108Z,2.27
2018-08-25T14:25:27.072Z,2.50
2018-08-25T14:27:55.692Z,2.20
2018-08-25T14:30:25.909Z,1.87
2018-08-25T14:32:55.344Z,2.90
2018-08-25T14:35:25.133Z,1.77
2018-08-25T14:37:53.800Z,2.10
2018-08-25T14:40:23.485Z,2.13
2018-08-25T14:42:52.727Z,1.73
2018-08-25T14:45:21.793Z,1.70
2018-08-25T14:47:50.614Z,1.63
2018-08-25T14:50:19.603Z,1.50
2018-08-25T14:52:49.970Z,2.00
2018-08-25T14:55:19.099Z,1.90
2018-08-25T14:57:48.627Z,1.90
2018-08-25T15:00:17.309Z,1.70
2018-08-25T15:02:46.396Z,1.77
2018-08-25T15:05:15.753Z,1.73
2018-08-25T15:07:44.748Z,1.33
2018-08-25T15:10:14.221Z,1.23
2018-08-25T15:12:43.027Z,1.50
2018-08-25T15:15:11.684Z,1.53
2018-08-25T15:17:41.239Z,1.30
2018-08-25T15:20:10.757Z,1.50
2018-08-25T15:22:40.885Z,1.00
2018-08-25T15:25:09.800Z,1.30
2018-08-25T15:27:39.867Z,1.13
2018-08-25T15:30:08.571Z,1.00
2018-08-25T15:32:37.903Z,1.30
2018-08-25T15:35:08.320Z,1.30
2018-08-25T15:37:37.660Z,0.77
2018-08-25T15:40:06.772Z,1.30
2018-08-25T15:42:35.446Z,1.50
2018-08-25T15:45:04.354Z,1.57
2018-08-25T15:47:34.545Z,1.43
2018-08-25T15:50:03.168Z,1.20
2018-08-25T15:52:32.599Z,1.43
2018-08-25T15:55:01.257Z,1.80
2018-08-25T15:57:29.903Z,0.87
2018-08-25T15:59:58.691Z,0.87
2018-08-25T16:02:27.400Z,1.10
2018-08-25T16:04:56.384Z,1.40
2018-08-25T16:07:25.183Z,0.80
2018-08-25T16:09:53.916Z,1.10
2018-08-25T16:12:23.531Z,1.10
2018-08-25T16:14:52.543Z,1.03
2018-08-25T16:17:21.157Z,0.70
2018-08-25T16:19:50.027Z,1.17
2018-08-25T16:22:18.760Z,1.03
2018-08-25T16:24:48.084Z,0.90
2018-08-25T16:27:18.214Z,1.40
2018-08-25T16:29:47.887Z,0.80
2018-08-25T16:32:18.073Z,1.17
2018-08-25T16:34:47.039Z,1.63
2018-08-25T16:37:16.222Z,1.23
2018-08-25T16:39:44.851Z,1.20
2018-08-25T16:42:13.605Z,1.03
2018-08-25T16:44:42.481Z,1.20
2018-08-25T16:47:11.707Z,0.73
2018-08-25T16:49:40.685Z,1.50
2018-08-25T16:52:09.556Z,1.17
2018-08-25T16:54:38.641Z,1.20
2018-08-25T16:57:07.778Z,1.90
2018-08-25T16:59:37.607Z,1.20
2018-08-25T17:02:06.661Z,1.27
2018-08-25T17:04:35.513Z,1.40
2018-08-25T17:07:04.303Z,0.73
2018-08-25T17:09:32.988Z,1.30
2018-08-25T17:12:02.038Z,1.03
2018-08-25T17:14:30.965Z,0.80
2018-08-25T17:16:59.920Z,1.13
2018-08-25T17:19:28.875Z,0.70
2018-08-25T17:21:58.246Z,0.90
2018-08-25T17:24:26.868Z,1.00
2018-08-25T17:26:56.042Z,0.80
2018-08-25T17:29:24.661Z,0.70
2018-08-25T17:31:53.527Z,0.87
2018-08-25T17:34:22.178Z,0.70
2018-08-25T17:36:51.011Z,0.70
2018-08-25T17:39:20.312Z,0.70
2018-08-25T17:41:51.002Z,0.83
2018-08-25T17:44:19.737Z,0.60
2018-08-25T17:46:48.397Z,1.50
2018-08-25T17:49:17.970Z,0.70
2018-08-25T17:51:48.309Z,0.73
2018-08-25T17:54:18.129Z,0.70
2018-08-25T17:56:47.558Z,0.57
2018-08-25T17:59:16.784Z,0.83
2018-08-25T18:01:45.568Z,0.70
2018-08-25T18:04:14.455Z,1.00
2018-08-25T18:06:43.103Z,0.80
2018-08-25T18:09:11.809Z,1.30
2018-08-25T18:11:42.567Z,1.00
2018-08-25T18:14:11.409Z,1.43
2018-08-25T18:16:41.815Z,1.40
2018-08-25T18:19:10.584Z,1.07
2018-08-25T18:21:41.231Z,1.30
2018-08-25T18:24:10.257Z,1.37
2018-08-25T18:26:41.213Z,2.37
2018-08-25T18:29:10.483Z,1.37
2018-08-25T18:31:39.211Z,1.30
2018-08-25T18:34:08.649Z,1.10
2018-08-25T18:36:37.358Z,1.40
2018-08-25T18:39:10.091Z,1.33
2018-08-25T18:41:39.822Z,1.23
2018-08-25T18:44:10.969Z,1.87
2018-08-25T18:46:40.173Z,1.50
2018-08-25T18:49:09.002Z,0.80
2018-08-25T18:51:38.170Z,0.70
2018-08-25T18:54:07.210Z,1.47
2018-08-25T18:56:35.865Z,1.90
2018-08-25T18:59:05.016Z,1.43
2018-08-25T19:01:34.049Z,0.70
2018-08-25T19:04:03.282Z,0.80
2018-08-25T19:06:32.452Z,1.13
2018-08-25T19:09:01.760Z,1.00
2018-08-25T19:11:30.893Z,0.90
2018-08-25T19:13:59.916Z,1.00
2018-08-25T19:16:29.055Z,0.57
2018-08-25T19:18:57.801Z,1.80
2018-08-25T19:21:26.742Z,1.47
2018-08-25T19:23:56.252Z,1.17
2018-08-25T19:26:25.550Z,1.23
2018-08-25T19:28:54.552Z,1.03
2018-08-25T19:31:23.553Z,0.50
2018-08-25T19:33:52.971Z,1.30
2018-08-25T19:36:22.847Z,1.00
2018-08-25T19:38:51.807Z,0.70
2018-08-25T19:41:21.115Z,1.10
2018-08-25T19:43:51.620Z,1.23
2018-08-25T19:46:20.495Z,0.50
2018-08-25T19:48:50.215Z,0.97
2018-08-25T19:51:19.172Z,0.60
2018-08-25T19:53:48.345Z,0.87
2018-08-25T19:56:17.995Z,1.20
2018-08-25T19:58:47.067Z,1.00
2018-08-25T20:01:15.891Z,1.10
2018-08-25T20:03:44.824Z,1.10
2018-08-25T20:06:13.845Z,1.00
2018-08-25T20:08:42.815Z,1.13
2018-08-25T20:11:11.804Z,0.73
2018-08-25T20:13:40.550Z,0.93
2018-08-25T20:16:09.559Z,1.00
2018-08-25T20:18:38.999Z,0.83
2018-08-25T20:21:08.750Z,0.70
2018-08-25T20:23:37.278Z,0.90
2018-08-25T20:26:07.117Z,0.80
2018-08-25T20:28:35.759Z,0.70
2018-08-25T20:31:04.472Z,0.70
2018-08-25T20:33:33.767Z,0.53
2018-08-25T20:36:02.495Z,0.70
2018-08-25T20:38:32.307Z,1.40
2018-08-25T20:41:01.308Z,1.73
2018-08-25T20:43:30.151Z,0.90
2018-08-25T20:45:59.158Z,1.10
2018-08-25T20:48:28.794Z,0.53
2018-08-25T20:50:57.560Z,1.13
2018-08-25T20:53:26.898Z,1.00
2018-08-25T20:55:55.498Z,1.50
2018-08-25T20:58:24.231Z,1.03
2018-08-25T21:00:52.907Z,0.63
2018-08-25T21:03:21.757Z,1.10
2018-08-25T21:05:50.602Z,0.90
2018-08-25T21:08:19.333Z,1.53
2018-08-25T21:10:48.054Z,0.90
2018-08-25T21:13:16.785Z,0.90
2018-08-25T21:15:45.494Z,0.93
2018-08-25T21:18:14.769Z,1.53
2018-08-25T21:20:44.024Z,1.23
2018-08-25T21:23:12.789Z,0.90
2018-08-25T21:25:41.409Z,0.50
2018-08-25T21:28:10.079Z,0.90
2018-08-25T21:30:38.756Z,0.90
2018-08-25T21:33:07.493Z,0.87
2018-08-25T21:35:36.104Z,0.70
2018-08-25T21:38:04.764Z,1.20
2018-08-25T21:40:33.660Z,1.40
2018-08-25T21:44:05.567Z,1.43
2018-08-25T21:46:34.271Z,1.37
2018-08-25T21:49:03.095Z,1.30
2018-08-25T21:51:32.181Z,1.00
2018-08-25T21:54:00.844Z,1.20
2018-08-25T21:56:29.582Z,1.50
2018-08-25T21:58:58.979Z,1.10
2018-08-25T22:01:31.823Z,1.33
2018-08-25T22:04:00.591Z,1.27
2018-08-25T22:06:29.647Z,1.50
2018-08-25T22:08:59.348Z,1.53
2018-08-25T22:11:28.260Z,1.17
2018-08-25T22:13:57.508Z,1.77
2018-08-25T22:16:26.135Z,1.40
2018-08-25T22:18:54.881Z,1.10
2018-08-25T22:21:23.520Z,1.40
2018-08-25T22:23:52.385Z,1.23
2018-08-25T22:26:21.104Z,1.00
2018-08-25T22:28:49.820Z,1.77
2018-08-25T22:31:18.601Z,1.30
2018-08-25T22:33:47.656Z,1.50
2018-08-25T22:36:16.363Z,1.77
2018-08-25T22:38:44.999Z,1.97
2018-08-25T22:41:13.722Z,1.20
2018-08-25T22:43:42.286Z,1.20
2018-08-25T22:46:11.237Z,1.30
2018-08-25T22:48:40.441Z,2.07
2018-08-25T22:51:09.289Z,1.07
2018-08-25T22:53:38.118Z,1.53
2018-08-25T22:56:06.790Z,1.40
2018-08-25T22:58:36.223Z,1.50
2018-08-25T23:01:05.081Z,1.27
2018-08-25T23:03:33.706Z,1.23
2018-08-25T23:06:02.503Z,1.30
2018-08-25T23:08:31.807Z,1.33
2018-08-25T23:11:00.487Z,1.20
2018-08-25T23:13:29.913Z,1.00
2018-08-25T23:15:58.622Z,1.27
2018-08-25T23:18:27.432Z,1.10
2018-08-25T23:20:56.072Z,1.20
2018-08-25T23:23:24.895Z,1.97
2018-08-25T23:25:53.686Z,1.07
2018-08-25T23:35:06.413Z,1.67
2018-08-25T23:37:36.243Z,1.30
2018-08-25T23:40:04.915Z,1.50
2018-08-25T23:42:33.518Z,1.50
2018-08-25T23:45:02.239Z,1.30
2018-08-25T23:47:31.125Z,1.37
2018-08-25T23:49:59.956Z,1.10
2018-08-25T23:52:33.423Z,1.30
2018-08-25T23:55:03.828Z,1.37
2018-08-25T23:57:32.464Z,1.30
